Aviation Digital Data Service (ADDS)

Output produced by METARs form (0008 UTC 23 September 2017)
found at http://aviationweather.gov/adds/metars/
 
KDAG 222350Z AUTO 29009KT 10SM CLR 23/M07 A2977 RMK AO2 SLP066 T02331072 10239 20183 56016
KDAG 222320Z 2300/2324 30010KT P6SM SKC 
     FM230200 26011KT P6SM FEW120 
     FM231800 33011KT P6SM SKC
       
KEDW 222356Z 03005KT 80SM FEW040 22/M06 A2976 RMK AO2A SLP067 T02201058 10226 20172 57019
TAF AMD KEDW 222302Z 2223/2324 VRB06KT 9999 SKC QNH2976INS 
     BECMG 2303/2304 VRB06KT 9999 SKC QNH2982INS TX23/2223Z TN05/2312Z
       
KVCV 222355Z AUTO 00000KT 10SM CLR 21/M09 A2981 RMK AO2
KONT 222353Z COR 23011KT 10SM SCT050 22/09 A2979 RMK AO2 SLP079 T02170094 10239 20178 56015
KONT 222323Z 2300/2406 23011KT P6SM SCT040 
     FM230400 VRB05KT P6SM FEW025 SCT040 
     FM232100 25011KT P6SM FEW040
       
KSNA 222353Z 25009KT 10SM FEW050 22/10 A2980 RMK AO2 SLP092 T02170100 10228 20200 56012
KSNA 222323Z 2300/2324 23011KT P6SM FEW050 
     FM230200 VRB05KT P6SM SCT025 BKN035 
     FM231900 22010KT P6SM FEW025 SCT035
       
KSAN 222351Z 25009KT 10SM SCT025 SCT040 21/14 A2983 RMK AO2 SLP100 T02110139 10228 20200 56009
KSAN 222323Z 2300/2406 28009KT P6SM FEW040 SCT250 
     FM230300 VRB05KT P6SM SCT020 BKN035 
     FM231700 24007KT P6SM FEW025 SCT035 
     FM232000 28009KT P6SM FEW035 
     FM240200 VRB05KT P6SM FEW035
       
KNID 222356Z AUTO 11007KT 10SM CLR 23/M07 A2977 RMK AO2 SLP072 T02281072 10233 20183 56018
KNXP 222356Z AUTO 35003KT 10SM CLR 24/M06 A2982 RMK AO2 SLP070 T02391056 10244 20200 56015 $
TAF KNXP 2221/2321 31010KT FEW250 QNH2974INS 
     TEMPO 2221/2303 31010G15KT 
     BECMG 2308/2310 VRB05KT 9999 FEW080 QNH2981INS AUTOMATED SENSOR METWATCH 2221 TIL 2515 T25/2222Z T14/2314Z
       
KPSP 222353Z 32010KT 10SM CLR 28/01 A2971 RMK AO2 SLP058 T02830011 10289 20244 56016
KPSP 222323Z 2300/2324 32012G20KT P6SM SKC 
     FM230700 VRB06KT P6SM SKC 
     FM232100 32012G20KT P6SM SKC
       
KLAX 222353Z 28014KT 10SM SCT044 19/14 A2982 RMK AO2 SLP095 T01940144 10222 20194 56011
KLAX 222331Z 2300/2406 27014KT P6SM FEW040 
     FM230200 25008KT P6SM SKC 
     FM230500 VRB04KT P6SM SKC 
     FM231500 10006KT P6SM SCT020 
     FM232000 25011KT P6SM SKC 
     FM240300 26007KT P6SM SKC
       
KCNO 222353Z 22013KT 10SM SCT050 23/10 A2980 RMK AO2 SLP087 T02330100 10261 20211 56014
KSMO 222351Z 25011G16KT 10SM CLR 19/13 A2981 RMK AO2 SLP094 T01940128 10228 20194 56013
KSMO 222331Z 2300/2324 25010G15KT P6SM SKC 
     FM230200 VRB04KT P6SM SKC 
     FM231500 VRB03KT P6SM SCT020 
     FM231800 23007KT P6SM SKC
       
KLGB 222353Z 24009KT 10SM FEW035 22/11 A2980 RMK AO2 SLP090 T02170111 10233 20200 56014
KLGB 222331Z 2300/2324 21008KT P6SM FEW050 
     FM230300 VRB03KT P6SM SKC 
     FM231300 12004KT P6SM SCT015 
     FM231900 20008KT P6SM SKC
       
KVNY 222351Z 21007KT 10SM CLR 22/09 A2979 RMK AO2 SLP081 T02170094 10233 20183 56013
KVNY 222331Z 2300/2324 VRB03KT P6SM FEW060 
     FM230200 12006KT P6SM SCT025 
     FM231000 VRB03KT P6SM SKC 
     FM232000 20008KT P6SM SKC
       
KBUR 222353Z 18010KT 10SM CLR 21/08 A2979 RMK AO2 SLP079 T02110083 10222 20189 56012
KBUR 222331Z 2300/2324 18010KT P6SM SKC 
     FM230300 13006KT P6SM SKC 
     FM231200 VRB03KT P6SM SKC 
     FM232000 18008KT P6SM SKC
       
KBFL 222354Z 32005KT 10SM CLR 23/02 A2981 RMK AO2 SLP089 T02330017 10239 20189 56019
KBFL 222320Z 2300/2324 33007KT P6SM SKC
       
KPMD 222353Z AUTO 29010KT 10SM CLR 21/02 A2980 RMK AO2 SLP076 T02110022 10222 20167 56014
KPMD 222331Z 2300/2324 26011KT P6SM FEW070 
     FM230600 24007KT P6SM SKC 
     FM231000 VRB05KT P6SM SKC 
     FM231800 04007KT P6SM SKC
       
KOXR 222351Z 25014KT 10SM CLR 19/12 A2981 RMK AO2 SLP095 T01890117 10206 20178 56015
KOXR 222331Z 2300/2324 26013KT P6SM SKC 
     FM230400 VRB04KT P6SM SKC 
     FM231900 25010KT P6SM SKC
       
KWJF 222356Z 24013KT 10SM FEW070 22/03 A2980 RMK AO2 SLP081 T02170033 10233 20183 56012
KWJF 222331Z 2300/2324 28011G17KT P6SM FEW070 
     FM230600 26008KT P6SM SKC 
     FM231200 VRB05KT P6SM SKC 
     FM231800 06011KT P6SM SKC
       
KCMA 222355Z 24009KT 10SM CLR 21/11 A2981 RMK AO2 SLP103 T02110111 10222 20200 56014
KCMA 222331Z 2300/2324 24009KT P6SM SKC 
     FM230200 VRB05KT P6SM SKC 
     FM232000 20010KT P6SM SKC
       
KFAT 222353Z 33003KT 10SM FEW070 23/01 A2983 RMK AO2 SLP100 CU OMTNS DSNT N-E-SE T02280011 10233 20172 56016
KFAT 222320Z 2300/2324 31006KT P6SM SKC 
     FM231200 VRB03KT P6SM SKC
       
KEED 222356Z AUTO 09006KT 10SM CLR 29/M06 A2969 RMK AO2 SLP030 T02891056 10294 20244 56016
KEED 222320Z 2300/2324 24007KT P6SM SKC 
     FM231200 33011KT P6SM FEW120 
     FM231600 35014G20KT P6SM FEW120
       
KLSV 222358Z AUTO 00000KT 10SM CLR 24/M04 A2974 RMK AO2 SLP057 T02371036 10243 20196 57012 $
TAF KLSV 222301Z 2223/2405 22009KT 9999 SKC QNH2973INS 
     BECMG 2301/2302 VRB06KT 9999 FEW100 QNH2974INS 
     BECMG 2306/2307 04012KT 9999 FEW100 QNH2974INS 
     TEMPO 2308/2314 04012G20KT 
     BECMG 2316/2317 34009KT 9999 SCT100 QNH2980INS 
     BECMG 2322/2323 03012G20KT 9999 BKN100 QNH2979INS TX23/2223Z TN12/2312Z
       
KLAS 222356Z 00000KT 10SM FEW120 23/M04 A2975 RMK AO2 SLP057 T02331039 10244 20200 56014
KLAS 222320Z 2300/2406 VRB05KT P6SM SKC 
     FM230300 24006KT P6SM FEW120 
     FM230900 34011G16KT P6SM BKN120 
     FM232000 03008KT P6SM FEW120 
     FM240500 20005KT P6SM SKC
       
KHII 222355Z AUTO 21004KT 10SM CLR 28/M07 A2969 RMK AO2
KIFP 222355Z 00000KT 10SM CLR 28/M07 A2968 RMK AO2
KIFP 222320Z 2300/2324 VRB05KT P6SM SKC 
     FM230500 01009KT P6SM SKC 
     FM231000 01016G24KT P6SM SCT120 
     FM232000 35011KT P6SM FEW120